Argyle, Missouri
Current Conditions -  °F | °C
As of 10:53 AM on Tuesday 27 Jan 2015 (Local Time) from KVIH Reporting Station
Clear Clear  
Wind Chill:   Ceiling: Unl
Heat Index:   Visibility: 10mi
Dew Point:   Wind: 3mph
Humidity: 70%   Direction: 310°NW
Pressure: 30.15"   Gusts: NA
Location:  38.29°N, 92.03°W
Report Text: KVIH 271653Z AUTO 31003KT 10SM CLR 06/01 A3015 RMK AO2 SLP214 T00560006
Loading
Personal Weather Stations






























Interactive Weather Map New forecast layout! Learn more

10-Day Weather Forecast

Advertisements
Track Severe Weather on mobile